Time;durP1;ratioP1;P1;durP2;ratioP2;P2;SDS_P1;SDS_P2;PMS_P1;PMS_P2;Temp;Humidity;BMP_temperature;BMP_pressure;BME280_temperature;BME280_humidity;BME280_pressure;Samples;Min_cycle;Max_cycle;Signal;HPM_P1;HPM_P2
2021/11/18 00:01:07;;;;;;;7.97;4.45;;;4.30;98.00;;;;;;5028163;28;20029;-76
2021/11/18 00:03:33;;;;;;;8.50;4.32;;;4.40;98.00;;;;;;5030213;28;20064;-76
2021/11/18 00:05:59;;;;;;;7.57;4.70;;;4.40;98.00;;;;;;5031134;28;20076;-75
2021/11/18 00:08:25;;;;;;;7.90;4.57;;;4.40;98.00;;;;;;5032958;28;20033;-75
2021/11/18 00:11:10;;;;;;;8.00;4.82;;;4.40;98.00;;;;;;5032721;28;20033;-75
2021/11/18 00:13:42;;;;;;;8.55;4.38;;;4.40;98.00;;;;;;5032933;28;20075;-76
2021/11/18 00:16:09;;;;;;;8.07;4.88;;;4.40;98.00;;;;;;5032614;28;20125;-78
2021/11/18 00:18:37;;;;;;;7.88;4.75;;;4.40;98.00;;;;;;5029382;28;20422;-77
2021/11/18 00:21:10;;;;;;;10.73;6.10;;;4.40;98.00;;;;;;5027687;28;21489;-76
2021/11/18 00:23:40;;;;;;;12.85;7.35;;;4.40;98.00;;;;;;5044859;28;20777;-77
2021/11/18 00:26:06;;;;;;;12.07;6.72;;;4.30;98.00;;;;;;5027464;28;20083;-77
2021/11/18 00:28:33;;;;;;;11.90;7.13;;;4.30;98.00;;;;;;5027818;28;20032;-77
2021/11/18 00:30:59;;;;;;;10.80;6.55;;;4.30;98.00;;;;;;5043337;28;20092;-77
2021/11/18 00:33:26;;;;;;;10.35;5.10;;;4.30;98.00;;;;;;5029350;28;20037;-78
2021/11/18 00:35:52;;;;;;;8.15;5.07;;;4.30;98.00;;;;;;5033651;28;20441;-76
2021/11/18 00:38:19;;;;;;;9.00;5.63;;;4.30;98.00;;;;;;5029100;28;20065;-77
2021/11/18 00:40:48;;;;;;;7.75;4.85;;;4.50;98.00;;;;;;5029920;28;20426;-77
2021/11/18 00:43:16;;;;;;;8.30;5.05;;;4.50;98.00;;;;;;5034522;28;20369;-76
2021/11/18 00:45:48;;;;;;;7.70;4.30;;;4.50;98.00;;;;;;5031697;28;20053;-76
2021/11/18 00:48:14;;;;;;;8.40;4.70;;;4.50;98.00;;;;;;5029905;28;20330;-75
2021/11/18 00:50:44;;;;;;;7.53;4.30;;;4.50;98.00;;;;;;5029846;28;20025;-76
2021/11/18 00:53:10;;;;;;;7.05;4.53;;;4.40;98.00;;;;;;5030164;28;20104;-76
2021/11/18 00:55:36;;;;;;;7.85;4.05;;;4.40;98.00;;;;;;5029012;28;20120;-76
2021/11/18 00:58:02;;;;;;;8.23;4.35;;;4.40;98.00;;;;;;5045449;28;20045;-77
2021/11/18 01:00:31;;;;;;;8.07;4.70;;;4.40;98.00;;;;;;5031395;28;20035;-76
2021/11/18 01:02:58;;;;;;;7.93;4.78;;;4.40;98.00;;;;;;5047508;28;20091;-77
2021/11/18 01:05:27;;;;;;;10.98;5.10;;;4.40;98.00;;;;;;5031007;28;20311;-77
2021/11/18 01:07:55;;;;;;;7.75;4.70;;;4.40;98.00;;;;;;5030739;28;20095;-77
2021/11/18 01:10:22;;;;;;;7.78;4.35;;;4.50;98.00;;;;;;5030397;28;20025;-76
2021/11/18 01:12:48;;;;;;;8.25;4.57;;;4.50;98.00;;;;;;5030754;28;20061;-75
2021/11/18 01:15:18;;;;;;;9.98;5.65;;;4.50;98.00;;;;;;5030435;28;20450;-76
2021/11/18 01:17:45;;;;;;;7.72;4.38;;;4.60;98.00;;;;;;5031222;28;20040;-75
2021/11/18 01:20:12;;;;;;;8.23;4.57;;;4.50;98.00;;;;;;5030625;28;20139;-77
2021/11/18 01:22:39;;;;;;;8.32;4.50;;;4.50;98.00;;;;;;5031163;28;20029;-77
2021/11/18 01:25:07;;;;;;;8.57;5.03;;;4.60;98.00;;;;;;5029798;28;20025;-76
2021/11/18 01:27:33;;;;;;;8.15;4.75;;;4.70;98.00;;;;;;5031723;28;20034;-77
2021/11/18 01:29:59;;;;;;;8.50;4.70;;;4.60;98.00;;;;;;5029699;28;20026;-76
2021/11/18 01:32:24;;;;;;;7.20;4.38;;;4.60;98.00;;;;;;5029519;28;20647;-77
2021/11/18 01:34:50;;;;;;;6.70;4.20;;;4.60;98.00;;;;;;5031446;28;20428;-76
2021/11/18 01:37:16;;;;;;;8.80;4.88;;;4.60;98.00;;;;;;5030730;28;20075;-76
2021/11/18 01:39:41;;;;;;;7.82;4.38;;;4.60;98.00;;;;;;5043494;28;20116;-76
2021/11/18 01:42:07;;;;;;;7.90;4.28;;;4.50;98.00;;;;;;5029914;28;20030;-77
2021/11/18 01:44:41;;;;;;;7.78;4.25;;;4.60;98.00;;;;;;5031062;28;20104;-76
2021/11/18 01:47:09;;;;;;;8.27;4.35;;;4.50;98.00;;;;;;5034110;28;20071;-77
2021/11/18 01:49:37;;;;;;;8.73;4.95;;;4.50;98.00;;;;;;5029093;28;20038;-76
2021/11/18 01:52:05;;;;;;;9.85;4.80;;;4.60;98.00;;;;;;5031769;28;20022;-76
2021/11/18 01:54:34;;;;;;;7.60;4.88;;;4.50;98.00;;;;;;5027656;28;20040;-77
2021/11/18 01:57:05;;;;;;;9.50;4.93;;;4.50;98.00;;;;;;5027771;28;20053;-76
2021/11/18 01:59:35;;;;;;;7.53;4.38;;;4.60;98.00;;;;;;5030460;28;20076;-77
2021/11/18 02:02:02;;;;;;;7.70;4.43;;;4.60;98.00;;;;;;5028603;28;20342;-77
2021/11/18 02:04:30;;;;;;;8.27;4.43;;;4.60;98.00;;;;;;5028593;28;20500;-78
2021/11/18 02:07:01;;;;;;;10.18;4.32;;;4.70;98.00;;;;;;5031376;28;20034;-77
2021/11/18 02:09:29;;;;;;;8.77;4.55;;;4.80;98.00;;;;;;5031815;28;20035;-77
2021/11/18 02:12:02;;;;;;;7.90;4.68;;;4.80;98.00;;;;;;5046596;28;20024;-76
2021/11/18 02:14:28;;;;;;;7.72;5.28;;;4.90;98.00;;;;;;5028797;28;20534;-77
2021/11/18 02:16:56;;;;;;;7.22;4.32;;;4.80;98.00;;;;;;5045029;28;20041;-76
2021/11/18 02:19:22;;;;;;;9.15;4.78;;;4.90;98.00;;;;;;5029427;28;20037;-77
2021/11/18 02:21:50;;;;;;;9.27;4.63;;;4.80;98.00;;;;;;5029109;28;20021;-77
2021/11/18 02:24:29;;;;;;;7.53;4.80;;;4.80;98.00;;;;;;5027937;28;20581;-76
2021/11/18 02:26:55;;;;;;;8.75;5.18;;;4.80;98.00;;;;;;5028232;28;20087;-77
2021/11/18 02:29:22;;;;;;;9.02;5.43;;;4.80;98.00;;;;;;5031170;28;20029;-75
2021/11/18 02:31:57;;;;;;;8.65;5.03;;;4.70;98.00;;;;;;5031717;28;20026;-76
2021/11/18 02:34:56;;;;;;;8.50;5.45;;;4.70;98.00;;;;;;5029318;28;20034;-76
2021/11/18 02:37:24;;;;;;;10.32;6.05;;;4.70;98.00;;;;;;5028834;28;20091;-77
2021/11/18 02:39:49;;;;;;;9.00;5.25;;;4.70;98.00;;;;;;5029421;28;20025;-76
2021/11/18 02:42:16;;;;;;;10.15;5.95;;;4.80;98.00;;;;;;5027918;28;20052;-76
2021/11/18 02:44:43;;;;;;;8.85;4.65;;;4.80;98.00;;;;;;5046247;28;20036;-76
2021/11/18 02:47:12;;;;;;;11.40;6.38;;;4.80;98.00;;;;;;5030762;28;20029;-76
2021/11/18 02:49:47;;;;;;;12.68;7.65;;;4.80;98.00;;;;;;5033348;28;20481;-77
2021/11/18 02:52:16;;;;;;;13.55;7.65;;;4.70;98.00;;;;;;5043674;28;20040;-77
2021/11/18 02:54:43;;;;;;;13.23;7.40;;;4.80;98.00;;;;;;5027514;28;20026;-76
2021/11/18 02:57:09;;;;;;;12.88;8.45;;;4.90;98.00;;;;;;5028454;28;20073;-77
2021/11/18 02:59:36;;;;;;;12.55;7.65;;;4.80;98.00;;;;;;5031349;28;20513;-76
2021/11/18 03:02:04;;;;;;;13.30;7.05;;;4.80;98.00;;;;;;5028459;28;20034;-76
2021/11/18 03:04:30;;;;;;;14.27;8.35;;;4.90;98.00;;;;;;5030101;28;20086;-77
2021/11/18 03:06:56;;;;;;;12.50;7.88;;;4.90;98.00;;;;;;5029370;28;20029;-76
2021/11/18 03:09:21;;;;;;;16.77;8.45;;;4.90;98.00;;;;;;5028884;28;20734;-76
2021/11/18 03:11:48;;;;;;;13.32;8.38;;;4.90;98.00;;;;;;5028730;28;20084;-77
2021/11/18 03:14:14;;;;;;;12.40;7.97;;;4.90;98.00;;;;;;5027406;28;20414;-78
2021/11/18 03:16:40;;;;;;;13.60;8.65;;;4.90;98.00;;;;;;5029598;28;20071;-76
2021/11/18 03:19:06;;;;;;;14.82;8.88;;;4.90;98.00;;;;;;5028915;28;20022;-76
2021/11/18 03:21:32;;;;;;;15.27;9.43;;;4.80;98.00;;;;;;5026999;28;20433;-76
2021/11/18 03:23:58;;;;;;;14.60;8.95;;;4.80;98.00;;;;;;5029577;28;20070;-76
2021/11/18 03:26:29;;;;;;;17.15;9.32;;;4.70;98.00;;;;;;5027436;28;20083;-76
2021/11/18 03:28:55;;;;;;;15.32;9.30;;;4.70;98.00;;;;;;5028371;28;20099;-77
2021/11/18 03:31:21;;;;;;;16.63;10.48;;;4.70;98.00;;;;;;5028646;28;20091;-77
2021/11/18 03:33:53;;;;;;;17.95;10.45;;;4.70;98.00;;;;;;5029225;28;20026;-76
2021/11/18 03:36:20;;;;;;;14.48;8.55;;;4.70;98.00;;;;;;5029144;28;20075;-77
2021/11/18 03:38:50;;;;;;;15.07;9.65;;;4.70;98.00;;;;;;5030169;28;20033;-77
2021/11/18 03:41:18;;;;;;;19.50;10.25;;;4.70;98.00;;;;;;5027266;28;20041;-78
2021/11/18 03:43:53;;;;;;;16.67;10.30;;;4.60;98.00;;;;;;5028871;28;20036;-76
2021/11/18 03:46:23;;;;;;;19.13;11.88;;;4.50;98.00;;;;;;5026906;28;20064;-76
2021/11/18 03:48:48;;;;;;;16.45;10.00;;;4.50;98.00;;;;;;5029143;28;20030;-76
2021/11/18 03:51:14;;;;;;;20.08;10.35;;;4.50;98.00;;;;;;5045572;28;21362;-76
2021/11/18 03:53:41;;;;;;;19.50;11.65;;;4.50;98.00;;;;;;5034457;28;20051;-76
2021/11/18 03:56:20;;;;;;;18.90;10.80;;;4.50;98.00;;;;;;5049374;28;20079;-78
2021/11/18 03:58:46;;;;;;;21.58;12.55;;;4.40;98.00;;;;;;5031675;28;20434;-78
2021/11/18 04:01:12;;;;;;;24.08;12.77;;;4.40;98.00;;;;;;5026698;28;20048;-77
2021/11/18 04:03:39;;;;;;;19.90;11.52;;;4.30;98.00;;;;;;5027278;28;20111;-77
2021/11/18 04:06:05;;;;;;;18.30;11.57;;;4.30;98.00;;;;;;5030543;28;20087;-77
2021/11/18 04:08:32;;;;;;;16.15;11.00;;;4.30;97.60;;;;;;5031303;28;20055;-76
2021/11/18 04:10:58;;;;;;;16.30;10.70;;;4.20;97.70;;;;;;5028300;28;20064;-75
2021/11/18 04:13:24;;;;;;;24.88;13.35;;;4.20;97.50;;;;;;5035437;28;20053;-76
2021/11/18 04:15:50;;;;;;;20.45;12.52;;;4.20;97.20;;;;;;5036645;28;20410;-75
2021/11/18 04:18:21;;;;;;;20.73;11.88;;;4.20;97.00;;;;;;5032296;28;20088;-75
2021/11/18 04:20:49;;;;;;;21.02;12.45;;;4.20;96.70;;;;;;5031029;28;20064;-79
2021/11/18 04:23:17;;;;;;;19.88;12.35;;;4.30;96.30;;;;;;5029799;28;20064;-76
2021/11/18 04:25:43;;;;;;;24.27;13.60;;;4.40;96.60;;;;;;5030993;28;20087;-76
2021/11/18 04:28:10;;;;;;;18.77;11.35;;;4.40;96.50;;;;;;5032100;28;20113;-76
2021/11/18 04:30:47;;;;;;;21.10;12.27;;;4.30;96.50;;;;;;5031919;28;20075;-76
2021/11/18 04:33:13;;;;;;;30.90;17.77;;;4.30;96.40;;;;;;5032749;28;20321;-76
2021/11/18 04:35:39;;;;;;;29.00;16.05;;;4.30;96.10;;;;;;5033499;28;20052;-77
2021/11/18 04:38:05;;;;;;;20.23;11.43;;;4.30;95.80;;;;;;5047698;28;20037;-75
2021/11/18 04:40:32;;;;;;;17.92;10.48;;;4.40;95.20;;;;;;5032759;28;20029;-77
2021/11/18 04:42:59;;;;;;;14.80;9.55;;;4.50;95.50;;;;;;5030860;28;20479;-77
2021/11/18 04:45:26;;;;;;;55.50;30.40;;;4.50;95.90;;;;;;5030198;28;20029;-76
2021/11/18 04:47:51;;;;;;;31.45;18.40;;;4.40;96.30;;;;;;5029907;28;20393;-76
2021/11/18 04:50:20;;;;;;;26.13;16.35;;;4.30;96.20;;;;;;5033107;28;20053;-76
2021/11/18 04:52:46;;;;;;;26.08;14.70;;;4.30;96.00;;;;;;5039159;28;20022;-76
2021/11/18 04:55:15;;;;;;;23.92;14.43;;;4.30;95.70;;;;;;5035638;28;20033;-76
2021/11/18 04:57:41;;;;;;;30.38;16.33;;;4.30;95.20;;;;;;5030623;28;20414;-77
2021/11/18 05:00:12;;;;;;;34.88;19.95;;;4.30;94.90;;;;;;5030734;28;20060;-77
2021/11/18 05:02:38;;;;;;;29.67;17.02;;;4.30;94.80;;;;;;5029157;28;20057;-76
2021/11/18 05:05:06;;;;;;;29.40;15.45;;;4.30;94.30;;;;;;5035920;28;21147;-76
2021/11/18 05:07:31;;;;;;;23.17;13.55;;;4.30;94.10;;;;;;5031342;28;20025;-76
2021/11/18 05:09:57;;;;;;;25.10;13.15;;;4.30;94.00;;;;;;5029754;28;20078;-76
2021/11/18 05:12:23;;;;;;;26.05;14.50;;;4.40;94.20;;;;;;5043617;28;20036;-77
2021/11/18 05:14:48;;;;;;;25.85;11.85;;;4.40;94.10;;;;;;5028566;28;20040;-78
2021/11/18 05:17:14;;;;;;;23.45;12.98;;;4.40;94.00;;;;;;5030761;28;20030;-76
2021/11/18 05:19:40;;;;;;;29.90;14.95;;;4.40;93.40;;;;;;5031254;28;20063;-76
2021/11/18 05:22:06;;;;;;;27.75;14.07;;;4.40;93.80;;;;;;5029540;28;20037;-76
2021/11/18 05:24:31;;;;;;;30.95;14.32;;;4.30;93.70;;;;;;5028559;28;20040;-76
2021/11/18 05:26:58;;;;;;;19.45;12.07;;;4.40;92.60;;;;;;5030426;28;20092;-76
2021/11/18 05:29:23;;;;;;;14.70;8.80;;;4.40;93.60;;;;;;5047410;28;20079;-76
2021/11/18 05:31:49;;;;;;;18.85;10.93;;;4.40;93.60;;;;;;5031699;28;20025;-76
2021/11/18 05:34:15;;;;;;;18.48;10.85;;;4.40;93.20;;;;;;5034137;28;20033;-76
2021/11/18 05:36:41;;;;;;;22.50;12.20;;;4.40;93.00;;;;;;5035211;28;20053;-76
2021/11/18 05:39:07;;;;;;;25.55;12.65;;;4.40;92.60;;;;;;5034783;28;20025;-77
2021/11/18 05:41:33;;;;;;;27.55;13.40;;;4.40;92.90;;;;;;5031546;28;20295;-77
2021/11/18 05:44:03;;;;;;;16.98;9.70;;;4.50;92.20;;;;;;5035136;28;20373;-76
2021/11/18 05:46:34;;;;;;;16.08;9.23;;;4.50;92.20;;;;;;5047113;28;20030;-76
2021/11/18 05:49:02;;;;;;;16.95;8.82;;;4.60;92.00;;;;;;5035074;28;20018;-77
2021/11/18 05:51:29;;;;;;;13.32;8.05;;;4.70;92.90;;;;;;5031478;28;20029;-77
2021/11/18 05:53:54;;;;;;;14.40;8.30;;;4.70;93.20;;;;;;5030674;28;20037;-76
2021/11/18 05:56:22;;;;;;;22.08;11.38;;;4.70;93.80;;;;;;5023618;28;20042;-76
2021/11/18 05:58:51;;;;;;;35.50;12.23;;;4.60;94.10;;;;;;5031378;28;20049;-76
2021/11/18 06:01:20;;;;;;;18.30;9.90;;;4.60;94.10;;;;;;5035055;28;20445;-76
2021/11/18 06:03:46;;;;;;;16.45;9.65;;;4.50;93.90;;;;;;5035317;28;20053;-75
2021/11/18 06:06:13;;;;;;;17.52;10.57;;;4.50;93.70;;;;;;5035333;28;20030;-77
2021/11/18 06:08:39;;;;;;;29.73;13.43;;;4.50;93.30;;;;;;5050005;28;20044;-77
2021/11/18 06:11:15;;;;;;;17.02;10.00;;;4.50;93.30;;;;;;5033311;28;20022;-76
2021/11/18 06:13:42;;;;;;;16.60;10.23;;;4.50;93.40;;;;;;5032348;28;20022;-77
2021/11/18 06:16:08;;;;;;;17.63;10.80;;;4.50;92.80;;;;;;5033341;28;20032;-78
2021/11/18 06:18:34;;;;;;;15.60;9.27;;;4.50;93.00;;;;;;5032671;28;20024;-76
2021/11/18 06:21:00;;;;;;;16.42;9.93;;;4.50;92.70;;;;;;5035190;28;20026;-77
2021/11/18 06:23:26;;;;;;;18.15;10.25;;;4.60;92.80;;;;;;5050762;28;20108;-78
2021/11/18 06:25:52;;;;;;;23.10;15.07;;;4.60;92.50;;;;;;5034315;28;20026;-77
2021/11/18 06:28:18;;;;;;;22.10;13.25;;;4.50;92.70;;;;;;5033954;28;20025;-77
2021/11/18 06:30:53;;;;;;;17.35;10.35;;;4.50;92.50;;;;;;5033525;28;20021;-78
2021/11/18 06:33:21;;;;;;;16.02;10.35;;;4.60;92.30;;;;;;5032445;28;20025;-78
2021/11/18 06:35:48;;;;;;;13.18;7.97;;;4.60;91.70;;;;;;5028620;28;20021;-76
2021/11/18 06:38:14;;;;;;;17.40;9.60;;;4.70;91.30;;;;;;5027609;28;20052;-77
2021/11/18 06:40:40;;;;;;;20.50;11.23;;;4.70;92.40;;;;;;5028742;28;20060;-77
2021/11/18 06:43:06;;;;;;;19.50;10.80;;;4.70;92.60;;;;;;5026575;28;20025;-76
2021/11/18 06:45:36;;;;;;;21.08;11.80;;;4.60;92.50;;;;;;5027923;28;20038;-76
2021/11/18 06:48:03;;;;;;;19.65;10.93;;;4.60;92.50;;;;;;5044162;28;20566;-76
2021/11/18 06:50:29;;;;;;;19.23;10.00;;;4.60;92.10;;;;;;5033108;28;20040;-77
2021/11/18 06:52:54;;;;;;;16.15;9.27;;;4.60;92.30;;;;;;5033040;28;20029;-78
2021/11/18 06:55:20;;;;;;;19.45;11.80;;;4.60;91.90;;;;;;5029207;28;20108;-77
2021/11/18 06:57:49;;;;;;;22.42;12.77;;;4.60;91.40;;;;;;5035044;28;20100;-78
2021/11/18 07:00:16;;;;;;;25.30;13.30;;;4.70;91.30;;;;;;5034586;28;20021;-78
2021/11/18 07:02:42;;;;;;;18.38;9.55;;;4.70;91.60;;;;;;5032304;28;20460;-77
2021/11/18 07:05:08;;;;;;;18.52;10.40;;;4.70;91.30;;;;;;5033375;28;20033;-77
2021/11/18 07:07:34;;;;;;;16.45;8.68;;;4.80;90.60;;;;;;5032351;28;20025;-77
2021/11/18 07:10:01;;;;;;;18.08;10.52;;;4.80;91.60;;;;;;5030097;28;20022;-77
2021/11/18 07:12:28;;;;;;;23.77;11.20;;;4.90;91.50;;;;;;5033602;28;20168;-76
2021/11/18 07:14:54;;;;;;;17.60;9.18;;;4.80;91.70;;;;;;5032527;28;20450;-76
2021/11/18 07:17:20;;;;;;;16.15;8.93;;;4.90;91.40;;;;;;5034380;28;20103;-77
2021/11/18 07:19:47;;;;;;;17.90;9.80;;;4.90;91.30;;;;;;5033916;28;20477;-78
2021/11/18 07:22:13;;;;;;;18.92;10.20;;;4.90;91.00;;;;;;5048715;28;20117;-77
2021/11/18 07:24:39;;;;;;;15.00;8.73;;;4.90;91.10;;;;;;5033391;28;20108;-77
2021/11/18 07:27:05;;;;;;;13.77;8.18;;;5.00;91.20;;;;;;5033340;28;20087;-77
2021/11/18 07:29:31;;;;;;;15.75;8.82;;;5.10;91.30;;;;;;5031856;28;20037;-77
2021/11/18 07:31:58;;;;;;;14.98;8.63;;;5.10;91.30;;;;;;5031952;28;20389;-77
2021/11/18 07:34:24;;;;;;;12.13;8.23;;;5.10;91.50;;;;;;5033343;28;20030;-77
2021/11/18 07:36:49;;;;;;;14.45;7.97;;;5.20;90.80;;;;;;5031978;28;20436;-77
2021/11/18 07:39:24;;;;;;;11.02;7.20;;;5.30;91.40;;;;;;5030119;28;20026;-77
2021/11/18 07:41:52;;;;;;;12.73;7.55;;;5.30;91.90;;;;;;5049535;28;20025;-77
2021/11/18 07:44:18;;;;;;;10.68;6.50;;;5.30;92.30;;;;;;5033716;28;20033;-76
2021/11/18 07:46:44;;;;;;;10.63;6.43;;;5.40;92.30;;;;;;5034756;28;20033;-77
2021/11/18 07:49:10;;;;;;;11.70;7.10;;;5.40;92.70;;;;;;5037224;28;20026;-77
2021/11/18 07:51:38;;;;;;;9.98;6.47;;;5.50;93.10;;;;;;5036451;28;20026;-77
2021/11/18 07:54:05;;;;;;;10.13;6.03;;;5.40;94.10;;;;;;5037699;28;20041;-76
2021/11/18 07:56:31;;;;;;;9.60;5.93;;;5.40;94.30;;;;;;5036596;28;20021;-77
2021/11/18 07:58:57;;;;;;;11.57;5.78;;;5.40;95.00;;;;;;5038227;28;20060;-77
2021/11/18 08:01:24;;;;;;;11.02;6.47;;;5.40;95.10;;;;;;5052133;28;20025;-76
2021/11/18 08:03:50;;;;;;;11.45;7.70;;;5.50;95.30;;;;;;5036026;28;20072;-77
2021/11/18 08:06:23;;;;;;;10.38;6.78;;;5.60;95.50;;;;;;5037123;28;20116;-77
2021/11/18 08:08:51;;;;;;;7.95;4.72;;;5.70;95.40;;;;;;5037189;28;20515;-77
2021/11/18 08:11:20;;;;;;;9.23;5.45;;;5.80;96.80;;;;;;5035212;28;20017;-77
2021/11/18 08:13:46;;;;;;;9.93;6.25;;;5.90;97.70;;;;;;5053635;28;20107;-76
2021/11/18 08:16:12;;;;;;;8.02;5.45;;;5.80;98.00;;;;;;5036131;28;20021;-78
2021/11/18 08:18:38;;;;;;;7.60;5.03;;;5.80;98.00;;;;;;5038136;28;20422;-77
2021/11/18 08:21:04;;;;;;;8.25;5.55;;;6.00;98.00;;;;;;5036011;28;20025;-77
2021/11/18 08:23:32;;;;;;;14.35;9.73;;;6.10;98.00;;;;;;5037038;28;20014;-77
2021/11/18 08:25:59;;;;;;;26.10;14.00;;;6.30;98.00;;;;;;5036527;28;20029;-77
2021/11/18 08:28:25;;;;;;;17.80;11.93;;;6.20;98.00;;;;;;5036449;28;20049;-77
2021/11/18 08:30:51;;;;;;;17.52;11.00;;;6.20;98.00;;;;;;5036968;28;20529;-77
2021/11/18 08:33:17;;;;;;;17.08;10.00;;;6.40;98.00;;;;;;5033926;28;20033;-77
2021/11/18 08:35:42;;;;;;;19.88;12.98;;;6.60;98.00;;;;;;5035783;28;20049;-77
2021/11/18 08:38:12;;;;;;;22.95;12.88;;;6.70;98.00;;;;;;5034546;28;20422;-78
2021/11/18 08:40:43;;;;;;;20.67;12.50;;;6.70;98.00;;;;;;5033375;28;20029;-77
2021/11/18 08:43:08;;;;;;;20.08;13.40;;;6.60;98.00;;;;;;5048745;28;20033;-77
2021/11/18 08:45:35;;;;;;;17.98;11.38;;;6.40;98.00;;;;;;5051222;28;20471;-77
2021/11/18 08:48:04;;;;;;;19.65;12.07;;;6.30;98.00;;;;;;5037052;28;20156;-77
2021/11/18 08:50:31;;;;;;;17.52;11.20;;;6.30;98.00;;;;;;5034947;28;20425;-77
2021/11/18 08:52:57;;;;;;;13.80;8.48;;;6.30;98.00;;;;;;5035664;28;20497;-77
2021/11/18 08:55:27;;;;;;;14.48;8.60;;;6.30;98.00;;;;;;5034773;28;20038;-77
2021/11/18 08:57:53;;;;;;;9.00;5.68;;;6.30;98.00;;;;;;5035185;28;20108;-76
2021/11/18 09:00:27;;;;;;;10.57;6.80;;;6.40;98.00;;;;;;5036818;28;20144;-78
2021/11/18 09:02:53;;;;;;;;;;;6.30;98.00;;;;;;5035879;28;20072;-76
2021/11/18 09:05:20;;;;;;;11.30;6.93;;;6.40;98.00;;;;;;5034232;28;19920;-78
2021/11/18 09:07:46;;;;;;;7.32;4.53;;;6.50;98.00;;;;;;5033846;28;20108;-76
2021/11/18 09:10:13;;;;;;;9.13;5.65;;;6.50;98.00;;;;;;5034644;28;20366;-77
2021/11/18 09:12:43;;;;;;;9.10;5.95;;;6.60;98.00;;;;;;5034075;28;20051;-77
2021/11/18 09:15:10;;;;;;;11.15;7.18;;;6.80;98.00;;;;;;5034592;28;20330;-77
2021/11/18 09:17:37;;;;;;;10.50;6.68;;;7.00;98.00;;;;;;5035424;28;20021;-77
2021/11/18 09:20:07;;;;;;;10.60;7.05;;;7.10;98.00;;;;;;5034113;28;20102;-78
2021/11/18 09:22:36;;;;;;;9.75;6.18;;;7.00;98.00;;;;;;5032283;28;20095;-77
2021/11/18 09:25:05;;;;;;;9.10;6.05;;;6.90;98.00;;;;;;5035677;28;20037;-77
2021/11/18 09:27:36;;;;;;;7.93;4.90;;;6.80;98.00;;;;;;5047487;28;20417;-77
2021/11/18 09:30:06;;;;;;;8.30;5.10;;;6.90;98.00;;;;;;5032798;28;20025;-76
2021/11/18 09:32:33;;;;;;;10.07;5.80;;;6.90;98.00;;;;;;5036516;28;20326;-75
2021/11/18 09:35:01;;;;;;;10.80;6.90;;;7.00;98.00;;;;;;5036283;28;20018;-76
2021/11/18 09:37:27;;;;;;;12.48;7.25;;;7.20;98.00;;;;;;5034225;28;20033;-76
2021/11/18 09:39:53;;;;;;;10.25;6.80;;;7.40;98.00;;;;;;5033822;28;20037;-75
2021/11/18 09:42:22;;;;;;;9.35;5.97;;;7.60;98.00;;;;;;5031413;28;20108;-77
2021/11/18 09:45:08;;;;;;;9.90;6.53;;;7.70;98.00;;;;;;5051726;28;20037;-77
2021/11/18 09:47:40;;;;;;;10.18;5.65;;;7.70;98.00;;;;;;5033636;28;20037;-77
2021/11/18 09:50:31;;;;;;;4.50;2.38;;;7.50;98.00;;;;;;5035683;28;20108;-77
2021/11/18 09:53:28;;;;;;;5.53;3.08;;;7.30;98.00;;;;;;5032032;28;20032;-76
2021/11/18 09:56:27;;;;;;;4.18;2.60;;;7.20;98.00;;;;;;5025275;28;20030;-78
2021/11/18 09:59:07;;;;;;;6.43;3.50;;;7.30;98.00;;;;;;5035042;28;20033;-77
2021/11/18 10:01:54;;;;;;;4.20;2.45;;;7.10;98.00;;;;;;5030290;28;20083;-76
2021/11/18 10:04:29;;;;;;;4.28;2.20;;;7.10;98.00;;;;;;5032545;28;20119;-78
2021/11/18 10:06:58;;;;;;;4.75;2.97;;;7.20;98.00;;;;;;5035044;28;20581;-76
2021/11/18 10:09:48;;;;;;;3.92;2.13;;;7.50;98.00;;;;;;5033143;28;20033;-77
2021/11/18 10:12:29;;;;;;;3.90;1.98;;;7.80;98.00;;;;;;5032522;28;20025;-77
2021/11/18 10:15:13;;;;;;;3.60;1.88;;;7.90;98.00;;;;;;5032499;28;20022;-77
2021/11/18 10:18:01;;;;;;;4.53;2.30;;;8.20;98.00;;;;;;5031371;28;20029;-77
2021/11/18 10:20:33;;;;;;;4.60;2.80;;;8.20;98.00;;;;;;5031369;28;20430;-77
2021/11/18 10:23:08;;;;;;;4.43;2.67;;;8.20;98.00;;;;;;5031769;28;20021;-77
2021/11/18 10:25:38;;;;;;;4.55;2.38;;;8.10;98.00;;;;;;5032461;28;20072;-77
2021/11/18 10:28:28;;;;;;;5.13;2.92;;;7.90;98.00;;;;;;5031537;28;20521;-77
2021/11/18 10:31:16;;;;;;;6.22;3.42;;;7.60;98.00;;;;;;5025157;28;20029;-76
2021/11/18 10:34:14;;;;;;;5.43;3.50;;;7.50;98.00;;;;;;5029796;28;20414;-76
2021/11/18 10:36:58;;;;;;;5.50;2.95;;;7.50;98.00;;;;;;5030867;28;20057;-76
2021/11/18 10:39:37;;;;;;;;;;;7.50;98.00;;;;;;5031778;28;20029;-76
2021/11/18 10:42:19;;;;;;;5.25;3.22;;;7.40;98.00;;;;;;5033185;28;20209;-77
2021/11/18 10:44:54;;;;;;;5.70;3.70;;;7.60;98.00;;;;;;5030051;28;20421;-76
2021/11/18 10:47:26;;;;;;;13.55;6.80;;;7.80;98.00;;;;;;5033031;28;20064;-76
2021/11/18 10:50:05;;;;;;;9.38;5.10;;;8.10;98.00;;;;;;5030895;28;20019;-76
2021/11/18 10:52:37;;;;;;;9.18;5.32;;;8.40;98.00;;;;;;5033289;28;20096;-76
2021/11/18 10:55:18;;;;;;;6.68;4.32;;;8.60;98.00;;;;;;5030138;28;20087;-77
2021/11/18 10:58:09;;;;;;;5.47;3.45;;;8.90;97.30;;;;;;5045332;28;20033;-76
2021/11/18 11:00:39;;;;;;;7.20;3.35;;;9.00;97.00;;;;;;5030356;28;20025;-78
2021/11/18 11:03:34;;;;;;;6.07;3.50;;;9.00;96.80;;;;;;5027876;28;20045;-76
2021/11/18 11:06:22;;;;;;;6.68;3.90;;;9.00;96.80;;;;;;5030726;28;20057;-76
2021/11/18 11:09:13;;;;;;;5.28;3.08;;;9.30;96.50;;;;;;5030406;28;20029;-76
2021/11/18 11:11:47;;;;;;;5.90;2.92;;;9.30;95.90;;;;;;5030943;28;20433;-77
2021/11/18 11:14:54;;;;;;;4.95;3.10;;;9.80;94.20;;;;;;5030702;28;20033;-77
2021/11/18 11:17:51;;;;;;;5.45;2.92;;;10.10;93.10;;;;;;5045035;28;20330;-77
2021/11/18 11:20:30;;;;;;;5.00;3.00;;;10.50;91.20;;;;;;5044419;28;20036;-76
2021/11/18 11:23:26;;;;;;;5.55;3.33;;;10.40;91.70;;;;;;5034546;28;20033;-77
2021/11/18 11:26:17;;;;;;;6.45;3.85;;;10.30;91.70;;;;;;5033260;28;20103;-78
2021/11/18 11:28:55;;;;;;;5.65;3.10;;;10.10;92.30;;;;;;5035320;28;20057;-76
2021/11/18 11:31:42;;;;;;;4.93;3.03;;;10.00;92.30;;;;;;5035241;28;20421;-76
2021/11/18 11:34:17;;;;;;;7.43;3.92;;;9.60;92.70;;;;;;5033903;28;20026;-77
2021/11/18 11:37:04;;;;;;;7.57;4.35;;;9.50;93.30;;;;;;5032993;28;20052;-77
2021/11/18 11:39:48;;;;;;;8.27;4.32;;;9.20;94.30;;;;;;5032869;28;20056;-76
2021/11/18 11:42:26;;;;;;;5.60;3.30;;;9.10;94.60;;;;;;5032788;28;20021;-76
2021/11/18 11:45:18;;;;;;;5.25;2.90;;;8.90;95.50;;;;;;5031025;28;20057;-76
2021/11/18 11:48:07;;;;;;;4.78;2.85;;;8.90;95.90;;;;;;5034111;28;20022;-77
2021/11/18 11:50:51;;;;;;;5.65;3.33;;;9.00;95.60;;;;;;5034008;28;20021;-77
2021/11/18 11:53:25;;;;;;;7.43;3.65;;;9.10;93.80;;;;;;5032038;28;20017;-76
2021/11/18 11:56:25;;;;;;;6.00;3.10;;;9.20;94.10;;;;;;5030944;28;20468;-77
2021/11/18 11:59:03;;;;;;;5.45;2.80;;;9.00;94.10;;;;;;5033629;28;20034;-76
2021/11/18 12:02:07;;;;;;;4.18;2.25;;;9.00;94.40;;;;;;5030669;28;20023;-76
2021/11/18 12:05:04;;;;;;;4.15;2.33;;;8.80;94.20;;;;;;5034101;28;20021;-76
2021/11/18 12:07:53;;;;;;;4.93;2.30;;;8.80;94.50;;;;;;5033810;28;20033;-77
2021/11/18 12:10:40;;;;;;;7.13;3.20;;;8.50;94.90;;;;;;5032858;28;20023;-76
2021/11/18 12:13:35;;;;;;;6.05;3.38;;;8.60;95.70;;;;;;5033829;28;20341;-77
2021/11/18 12:16:21;;;;;;;4.32;2.00;;;9.00;95.10;;;;;;5033853;28;20017;-77
2021/11/18 12:18:52;;;;;;;5.93;2.85;;;9.20;93.70;;;;;;5033364;28;20029;-76
2021/11/18 12:21:19;;;;;;;5.13;2.95;;;9.30;92.90;;;;;;5033859;28;20022;-77
2021/11/18 12:24:04;;;;;;;4.32;2.38;;;9.30;93.50;;;;;;5034685;28;20030;-77
2021/11/18 12:26:44;;;;;;;7.38;4.13;;;9.30;92.80;;;;;;5032769;28;20049;-75
2021/11/18 12:29:16;;;;;;;5.63;2.80;;;9.30;94.00;;;;;;5033722;28;20236;-77
2021/11/18 12:32:03;;;;;;;6.00;3.20;;;9.50;93.30;;;;;;5033477;28;20025;-76
2021/11/18 12:34:51;;;;;;;4.75;2.72;;;9.50;93.10;;;;;;5032261;28;20077;-77
2021/11/18 12:38:17;;;;;;;5.40;3.00;;;9.40;91.20;;;;;;5032968;28;20026;-77
2021/11/18 12:41:08;;;;;;;7.07;4.68;;;9.30;92.30;;;;;;4937072;29;20075;-75
2021/11/18 12:44:11;;;;;;;6.03;3.33;;;8.90;93.30;;;;;;5030141;28;20046;-74
2021/11/18 12:47:07;;;;;;;5.35;2.97;;;8.60;94.50;;;;;;5033684;28;20025;-76
2021/11/18 12:50:00;;;;;;;5.28;2.95;;;8.50;94.60;;;;;;5032835;28;20025;-78
2021/11/18 12:52:34;;;;;;;4.78;2.70;;;8.40;95.20;;;;;;5014490;28;20037;-78
2021/11/18 12:55:14;;;;;;;5.40;3.20;;;8.40;94.80;;;;;;5032523;28;20025;-77
2021/11/18 12:57:47;;;;;;;6.53;3.40;;;8.40;95.20;;;;;;5033278;28;20284;-77
2021/11/18 13:00:19;;;;;;;7.88;5.28;;;8.30;95.10;;;;;;5032325;28;20056;-76
2021/11/18 13:02:53;;;;;;;6.55;3.72;;;8.30;95.50;;;;;;5033047;28;20057;-77
2021/11/18 13:05:45;;;;;;;5.70;2.83;;;8.20;95.50;;;;;;5033738;28;20071;-77
2021/11/18 13:08:41;;;;;;;5.78;2.90;;;8.30;95.60;;;;;;5033958;28;20346;-76
2021/11/18 13:11:25;;;;;;;6.45;3.00;;;8.20;95.30;;;;;;5009060;28;20034;-76
2021/11/18 13:14:12;;;;;;;4.68;2.55;;;8.20;95.90;;;;;;5032980;28;20427;-77